Time;durP1;ratioP1;P1;durP2;ratioP2;P2;SDS_P1;SDS_P2;PMS_P1;PMS_P2;Temp;Humidity;BMP_temperature;BMP_pressure;BME280_temperature;BME280_humidity;BME280_pressure;Samples;Min_cycle;Max_cycle;Signal;HPM_P1;HPM_P2
2022/04/28 00:01:18;;;;;;;10.65;6.90;;;;;;;;;;5021289;28;20401;-58
2022/04/28 00:03:45;;;;;;;13.95;7.18;;;;;;;;;;5025482;28;20492;-58
2022/04/28 00:06:12;;;;;;;12.18;7.38;;;;;;;;;;5023449;28;20674;-56
2022/04/28 00:08:40;;;;;;;13.50;7.55;;;;;;;;;;5027545;28;20104;-56
2022/04/28 00:11:08;;;;;;;11.93;7.30;;;;;;;;;;5022541;28;20174;-58
2022/04/28 00:13:34;;;;;;;11.35;7.78;;;;;;;;;;5024139;28;20072;-56
2022/04/28 00:16:01;;;;;;;14.65;7.40;;;;;;;;;;5022593;28;20048;-58
2022/04/28 00:18:27;;;;;;;12.15;7.35;;;;;;;;;;5018343;28;20561;-58
2022/04/28 00:20:53;;;;;;;13.73;7.72;;;;;;;;;;5019668;28;20025;-56
2022/04/28 00:23:21;;;;;;;10.55;6.82;;;;;;;;;;5021515;28;20511;-58
2022/04/28 00:25:47;;;;;;;14.65;7.32;;;7.70;99.90;;;;;;5020017;28;20421;-58
2022/04/28 00:28:13;;;;;;;11.40;6.85;;;7.90;99.90;;;;;;5020522;28;20033;-57
2022/04/28 00:30:39;;;;;;;12.35;7.38;;;7.90;99.90;;;;;;5019950;28;20116;-57
2022/04/28 00:33:04;;;;;;;15.45;7.53;;;8.00;99.90;;;;;;5023600;28;20116;-56
2022/04/28 00:35:30;;;;;;;17.55;7.40;;;8.00;99.90;;;;;;5019362;28;20033;-57
2022/04/28 00:37:55;;;;;;;14.63;7.72;;;7.90;99.90;;;;;;5018135;28;20033;-58
2022/04/28 00:40:21;;;;;;;10.73;7.03;;;8.00;99.90;;;;;;5021785;28;20726;-57
2022/04/28 00:42:46;;;;;;;10.20;7.13;;;7.90;99.90;;;;;;5019708;28;20413;-57
2022/04/28 00:45:12;;;;;;;11.68;7.47;;;7.90;99.90;;;;;;5023332;28;20044;-58
2022/04/28 00:50:41;;;;;;;13.10;7.57;;;7.60;99.90;;;;;;5022522;28;20095;-56
2022/04/28 00:53:11;;;;;;;10.30;5.63;;;7.70;99.90;;;;;;5022042;28;20033;-57
2022/04/28 00:55:37;;;;;;;14.55;7.63;;;7.70;99.90;;;;;;5019349;28;20029;-56
2022/04/28 00:58:03;;;;;;;13.07;8.00;;;7.60;99.90;;;;;;5019431;28;20052;-57
2022/04/28 01:00:29;;;;;;;18.20;7.90;;;;;;;;;;5021722;28;20034;-57
2022/04/28 01:02:56;;;;;;;15.85;7.85;;;;;;;;;;5023317;28;20036;-58
2022/04/28 01:05:22;;;;;;;12.88;7.63;;;7.40;99.90;;;;;;5015927;28;20030;-57
2022/04/28 01:07:48;;;;;;;12.82;7.72;;;7.50;99.90;;;;;;5022106;28;20358;-57
2022/04/28 01:10:14;;;;;;;13.20;7.97;;;7.70;99.90;;;;;;5023061;28;20079;-57
2022/04/28 01:12:40;;;;;;;11.57;8.07;;;7.60;99.90;;;;;;5023205;28;20663;-56
2022/04/28 01:15:06;;;;;;;16.58;7.90;;;7.50;99.90;;;;;;5019236;28;20033;-58
2022/04/28 01:17:31;;;;;;;14.63;8.18;;;7.60;99.90;;;;;;5017859;28;20030;-58
2022/04/28 01:19:57;;;;;;;11.95;7.68;;;7.70;99.90;;;;;;5020082;28;20033;-56
2022/04/28 01:22:26;;;;;;;14.02;8.23;;;7.40;99.90;;;;;;5021920;28;20061;-57
2022/04/28 01:24:51;;;;;;;16.13;8.13;;;7.60;99.90;;;;;;5021896;28;20128;-58
2022/04/28 01:27:19;;;;;;;13.35;7.97;;;;;;;;;;5017031;28;20037;-55
2022/04/28 01:29:45;;;;;;;18.30;8.32;;;;;;;;;;5025453;28;20533;-57
2022/04/28 01:32:11;;;;;;;15.57;7.38;;;;;;;;;;5024444;28;20057;-57
2022/04/28 01:34:37;;;;;;;15.77;8.15;;;7.40;99.90;;;;;;5023140;28;20030;-57
2022/04/28 01:37:06;;;;;;;15.55;8.50;;;7.40;99.90;;;;;;5025020;28;20055;-57
2022/04/28 01:39:32;;;;;;;13.95;7.70;;;7.30;99.90;;;;;;5025778;28;20133;-58
2022/04/28 01:41:57;;;;;;;14.55;8.57;;;7.40;99.90;;;;;;5023736;28;20572;-57
2022/04/28 01:44:23;;;;;;;15.20;9.02;;;7.40;99.90;;;;;;5024113;28;20473;-58
2022/04/28 01:46:48;;;;;;;17.50;9.00;;;7.50;99.90;;;;;;5027598;28;20350;-57
2022/04/28 01:49:14;;;;;;;15.38;8.73;;;7.40;99.90;;;;;;5026254;28;20030;-57
2022/04/28 01:57:07;;;;;;;16.25;8.43;;;7.60;99.90;;;;;;5016539;28;20047;-57
2022/04/28 01:59:33;;;;;;;16.58;9.05;;;7.60;99.90;;;;;;5026179;28;20112;-57
2022/04/28 02:01:59;;;;;;;15.43;8.85;;;7.50;99.90;;;;;;5024275;28;20029;-57
2022/04/28 02:04:25;;;;;;;14.23;8.93;;;;;;;;;;5023518;28;20060;-57
2022/04/28 02:06:52;;;;;;;19.23;9.75;;;;;;;;;;5025939;28;20032;-57
2022/04/28 02:09:18;;;;;;;18.10;9.20;;;;;;;;;;5025067;28;20084;-57
2022/04/28 02:11:44;;;;;;;18.73;9.20;;;7.50;99.90;;;;;;5025603;28;20036;-56
2022/04/28 02:14:09;;;;;;;19.60;9.93;;;7.70;99.90;;;;;;5019336;28;20378;-58
2022/04/28 02:16:35;;;;;;;16.38;9.23;;;7.60;99.90;;;;;;5025024;28;20396;-57
2022/04/28 02:19:00;;;;;;;19.83;9.77;;;7.80;99.90;;;;;;5022962;28;20038;-57
2022/04/28 02:21:26;;;;;;;16.65;9.43;;;7.70;99.90;;;;;;5022525;28;20698;-58
2022/04/28 02:23:52;;;;;;;15.00;9.20;;;7.60;99.90;;;;;;5023789;28;20033;-55
2022/04/28 02:26:17;;;;;;;14.32;9.63;;;7.50;99.90;;;;;;5023027;28;20025;-57
2022/04/28 02:28:43;;;;;;;15.60;9.80;;;7.70;99.90;;;;;;5025812;28;20033;-58
2022/04/28 02:31:09;;;;;;;17.52;9.60;;;7.60;99.90;;;;;;5026597;28;20032;-57
2022/04/28 02:33:34;;;;;;;17.40;10.00;;;7.60;99.90;;;;;;5026593;28;20091;-57
2022/04/28 02:36:00;;;;;;;17.23;9.57;;;7.40;99.90;;;;;;5025876;28;20088;-57
2022/04/28 02:38:25;;;;;;;21.52;10.60;;;7.30;99.90;;;;;;5023212;28;20029;-58
2022/04/28 02:40:51;;;;;;;17.27;10.10;;;7.40;99.90;;;;;;5023441;28;20041;-57
2022/04/28 02:43:16;;;;;;;20.35;9.57;;;7.40;99.90;;;;;;5015566;28;20037;-57
2022/04/28 02:45:42;;;;;;;20.20;10.10;;;7.50;99.90;;;;;;5022654;28;20049;-57
2022/04/28 02:48:08;;;;;;;19.20;10.15;;;7.40;99.90;;;;;;5023788;28;20032;-58
2022/04/28 02:50:33;;;;;;;14.38;9.98;;;7.20;99.90;;;;;;5025149;28;20035;-57
2022/04/28 02:52:59;;;;;;;20.52;9.95;;;7.00;99.90;;;;;;5025801;28;20141;-57
2022/04/28 02:55:25;;;;;;;18.42;10.05;;;6.80;99.90;;;;;;5025050;28;20034;-57
2022/04/28 02:57:52;;;;;;;18.80;9.85;;;6.60;99.90;;;;;;5021743;28;20036;-57
2022/04/28 03:00:18;;;;;;;19.30;9.55;;;;;;;;;;5026540;28;20033;-58
2022/04/28 03:02:44;;;;;;;15.82;10.32;;;;;;;;;;5025353;28;20087;-56
2022/04/28 03:05:11;;;;;;;18.58;10.32;;;;;;;;;;5026010;28;20025;-56
2022/04/28 03:10:49;;;;;;;20.90;10.10;;;;;;;;;;5024081;28;20041;-58
2022/04/28 03:13:17;;;;;;;18.25;10.25;;;;;;;;;;5024990;28;20481;-57
2022/04/28 03:15:43;;;;;;;15.38;9.85;;;;;;;;;;5021149;28;20025;-56
2022/04/28 03:18:09;;;;;;;16.80;10.68;;;;;;;;;;5020991;28;20057;-56
2022/04/28 03:20:35;;;;;;;17.88;9.73;;;;;;;;;;5023008;28;20044;-57
2022/04/28 03:23:01;;;;;;;16.45;10.10;;;;;;;;;;5021416;28;20017;-57
2022/04/28 03:25:27;;;;;;;16.98;10.98;;;;;;;;;;5019834;28;20525;-57
2022/04/28 03:27:56;;;;;;;17.95;9.98;;;;;;;;;;5021055;28;20392;-57
2022/04/28 03:30:22;;;;;;;16.77;9.82;;;;;;;;;;5021245;28;20035;-58
2022/04/28 03:32:48;;;;;;;16.88;10.65;;;;;;;;;;5022981;28;20033;-57
2022/04/28 03:35:14;;;;;;;17.50;10.00;;;;;;;;;;5024146;28;20487;-55
2022/04/28 03:37:40;;;;;;;18.13;10.57;;;;;;;;;;5021290;28;20037;-56
2022/04/28 03:40:06;;;;;;;18.17;10.50;;;;;;;;;;5024358;28;20105;-57
2022/04/28 03:42:33;;;;;;;13.02;9.35;;;;;;;;;;5022258;28;20061;-57
2022/04/28 03:44:59;;;;;;;18.42;11.23;;;;;;;;;;5026277;28;20024;-57
2022/04/28 03:47:25;;;;;;;17.33;10.82;;;;;;;;;;5020348;28;20025;-57
2022/04/28 03:49:51;;;;;;;19.75;10.77;;;;;;;;;;5023094;28;20393;-58
2022/04/28 03:52:20;;;;;;;19.75;11.15;;;;;;;;;;5021052;28;21058;-57
2022/04/28 03:54:46;;;;;;;23.27;11.27;;;;;;;;;;5023162;28;20029;-57
2022/04/28 03:57:12;;;;;;;20.10;10.90;;;;;;;;;;5022631;28;20038;-56
2022/04/28 03:59:38;;;;;;;15.48;9.60;;;;;;;;;;5023250;28;20088;-56
2022/04/28 04:02:03;;;;;;;16.25;10.77;;;;;;;;;;5025338;28;20080;-57
2022/04/28 04:04:29;;;;;;;20.10;10.98;;;;;;;;;;5023505;28;20064;-58
2022/04/28 04:06:55;;;;;;;17.20;11.00;;;;;;;;;;5024397;28;20041;-57
2022/04/28 04:09:21;;;;;;;17.33;10.68;;;;;;;;;;5023671;28;20025;-57
2022/04/28 04:11:47;;;;;;;17.75;10.73;;;;;;;;;;5023433;28;20091;-58
2022/04/28 04:14:13;;;;;;;16.92;10.55;;;;;;;;;;5023149;28;20041;-56
2022/04/28 04:16:39;;;;;;;20.20;11.55;;;;;;;;;;5021229;28;20022;-57
2022/04/28 04:19:05;;;;;;;25.55;11.55;;;;;;;;;;5019491;28;20539;-57
2022/04/28 04:21:31;;;;;;;18.10;10.93;;;;;;;;;;5020130;28;20029;-57
2022/04/28 04:23:58;;;;;;;23.25;11.27;;;;;;;;;;5020595;28;20021;-57
2022/04/28 04:26:24;;;;;;;20.85;11.48;;;;;;;;;;5023448;28;20400;-58
2022/04/28 04:28:50;;;;;;;18.60;11.07;;;;;;;;;;5023450;28;20317;-58
2022/04/28 04:34:01;;;;;;;20.52;11.88;;;;;;;;;;5022410;28;20047;-57
2022/04/28 04:36:27;;;;;;;19.17;11.60;;;;;;;;;;5021982;28;20033;-56
2022/04/28 04:38:53;;;;;;;19.08;11.40;;;;;;;;;;5021439;28;20033;-57
2022/04/28 04:41:19;;;;;;;21.08;12.98;;;;;;;;;;5021137;28;20033;-57
2022/04/28 04:43:45;;;;;;;19.88;12.75;;;;;;;;;;5022984;28;20029;-57
2022/04/28 04:46:11;;;;;;;21.10;12.73;;;;;;;;;;5020951;28;20022;-57
2022/04/28 04:48:37;;;;;;;25.38;12.98;;;;;;;;;;5022019;28;20033;-56
2022/04/28 04:51:03;;;;;;;23.88;12.90;;;;;;;;;;5021395;28;20035;-57
2022/04/28 04:53:29;;;;;;;24.38;12.98;;;;;;;;;;5023708;28;20025;-58
2022/04/28 04:55:55;;;;;;;23.40;13.45;;;;;;;;;;5017431;28;20022;-57
2022/04/28 04:58:21;;;;;;;24.52;12.98;;;;;;;;;;5021016;28;20051;-56
2022/04/28 05:00:48;;;;;;;25.05;12.88;;;;;;;;;;5022119;28;20030;-58
2022/04/28 05:03:14;;;;;;;24.42;12.48;;;;;;;;;;5019675;28;20382;-57
2022/04/28 05:05:42;;;;;;;26.75;13.70;;;;;;;;;;5022269;28;20079;-57
2022/04/28 05:08:07;;;;;;;23.40;13.40;;;6.20;99.90;;;;;;5016988;28;20038;-57
2022/04/28 05:10:33;;;;;;;48.80;27.58;;;6.10;99.90;;;;;;5022606;28;20090;-57
2022/04/28 05:12:59;;;;;;;25.38;13.60;;;6.10;99.90;;;;;;5019956;28;20029;-57
2022/04/28 05:15:24;;;;;;;24.95;14.00;;;6.20;99.90;;;;;;5014410;28;20468;-57
2022/04/28 05:17:50;;;;;;;25.75;13.15;;;6.30;99.90;;;;;;5016297;28;20404;-58
2022/04/28 05:20:15;;;;;;;24.08;13.40;;;6.20;99.90;;;;;;5022684;28;20041;-57
2022/04/28 05:22:41;;;;;;;24.48;13.18;;;6.20;99.90;;;;;;5022759;28;20022;-56
2022/04/28 05:25:07;;;;;;;29.52;15.07;;;6.40;99.90;;;;;;5024141;28;20037;-57
2022/04/28 05:27:32;;;;;;;23.10;13.27;;;6.50;99.90;;;;;;5020870;28;20033;-57
2022/04/28 05:29:58;;;;;;;21.70;13.27;;;6.40;99.90;;;;;;5021062;28;20033;-57
2022/04/28 05:32:23;;;;;;;23.80;13.73;;;6.60;99.90;;;;;;5017408;28;20037;-57
2022/04/28 05:34:49;;;;;;;23.80;14.57;;;6.70;99.90;;;;;;5022543;28;20117;-58
2022/04/28 05:37:15;;;;;;;24.63;14.13;;;6.80;99.90;;;;;;5016664;28;20393;-57
2022/04/28 05:39:42;;;;;;;26.83;14.05;;;7.00;99.90;;;;;;5024588;28;20025;-58
2022/04/28 05:42:08;;;;;;;24.90;13.85;;;7.10;99.90;;;;;;5021255;28;20140;-57
2022/04/28 05:47:24;;;;;;;26.38;14.52;;;7.20;99.90;;;;;;5020273;28;20076;-58
2022/04/28 05:49:50;;;;;;;26.25;14.45;;;7.40;99.90;;;;;;5023427;28;20807;-57
2022/04/28 05:52:16;;;;;;;27.02;14.02;;;7.50;99.90;;;;;;5014808;28;20035;-56
2022/04/28 05:54:43;;;;;;;27.02;15.05;;;;;;;;;;5016385;28;20048;-58
2022/04/28 05:57:11;;;;;;;27.48;15.05;;;;;;;;;;5020496;28;20045;-57
2022/04/28 05:59:39;;;;;;;28.60;14.60;;;;;;;;;;5017121;28;20047;-57
2022/04/28 06:02:06;;;;;;;25.10;14.73;;;8.00;99.90;;;;;;5020109;28;20465;-57
2022/04/28 06:04:32;;;;;;;22.67;13.45;;;8.00;99.90;;;;;;5022262;28;20031;-56
2022/04/28 06:07:00;;;;;;;24.90;13.98;;;;;;;;;;5017502;28;20025;-58
2022/04/28 06:09:25;;;;;;;24.45;14.02;;;7.90;99.90;;;;;;5014382;28;20040;-57
2022/04/28 06:11:51;;;;;;;24.17;14.18;;;7.90;99.90;;;;;;5013320;28;20022;-57
2022/04/28 06:14:16;;;;;;;24.52;13.05;;;8.00;99.90;;;;;;5021162;28;20029;-57
2022/04/28 06:16:42;;;;;;;27.25;13.13;;;8.10;99.90;;;;;;5021390;28;20060;-57
2022/04/28 06:19:08;;;;;;;26.55;14.40;;;8.10;99.90;;;;;;5022177;28;20013;-57
2022/04/28 06:21:33;;;;;;;26.23;14.60;;;8.10;99.90;;;;;;5019612;28;20018;-57
2022/04/28 06:23:59;;;;;;;25.60;14.70;;;8.30;99.90;;;;;;5024936;28;20148;-58
2022/04/28 06:26:26;;;;;;;27.13;14.10;;;;;;;;;;5022831;28;20041;-58
2022/04/28 06:28:53;;;;;;;27.55;14.30;;;;;;;;;;5020565;28;20025;-56
2022/04/28 06:31:19;;;;;;;21.95;13.68;;;;;;;;;;5025470;28;20026;-57
2022/04/28 06:33:49;;;;;;;29.95;13.90;;;;;;;;;;5028525;28;20045;-58
2022/04/28 06:36:15;;;;;;;24.38;13.32;;;;;;;;;;5024966;28;20380;-56
2022/04/28 06:38:41;;;;;;;23.48;13.75;;;;;;;;;;5024128;28;20025;-57
2022/04/28 06:41:07;;;;;;;28.40;13.88;;;;;;;;;;5025420;28;20307;-57
2022/04/28 06:43:33;;;;;;;22.48;13.57;;;;;;;;;;5020284;28;20029;-58
2022/04/28 06:46:14;;;;;;;26.20;13.85;;;;;;;;;;5022031;28;20029;-57
2022/04/28 06:48:41;;;;;;;23.30;13.13;;;;;;;;;;5019418;28;20029;-58
2022/04/28 06:51:07;;;;;;;26.83;14.32;;;;;;;;;;5017965;28;20459;-58
2022/04/28 06:53:33;;;;;;;24.88;13.32;;;;;;;;;;5023742;28;20140;-58
2022/04/28 06:55:59;;;;;;;26.85;15.25;;;;;;;;;;5024019;28;20022;-58
2022/04/28 06:58:25;;;;;;;24.88;13.25;;;;;;;;;;5022981;28;20548;-58
2022/04/28 07:00:52;;;;;;;21.15;12.40;;;;;;;;;;5026541;28;20036;-58
2022/04/28 07:03:19;;;;;;;29.25;13.40;;;;;;;;;;5023386;28;20032;-57
2022/04/28 07:05:45;;;;;;;24.25;13.05;;;;;;;;;;5026328;28;20063;-58
2022/04/28 07:08:11;;;;;;;26.40;13.05;;;;;;;;;;5022500;28;20022;-58
2022/04/28 07:10:37;;;;;;;27.02;13.18;;;;;;;;;;5025033;28;20028;-57
2022/04/28 07:13:03;;;;;;;26.10;12.68;;;;;;;;;;5023938;28;20943;-57
2022/04/28 07:15:29;;;;;;;25.40;12.98;;;;;;;;;;5025076;28;20112;-57
2022/04/28 07:17:55;;;;;;;23.65;12.57;;;;;;;;;;5024398;28;20101;-59
2022/04/28 07:20:21;;;;;;;27.15;12.95;;;;;;;;;;5026064;28;20104;-57
2022/04/28 07:22:47;;;;;;;21.55;12.25;;;;;;;;;;5025479;28;20029;-57
2022/04/28 07:25:13;;;;;;;24.23;12.80;;;;;;;;;;5021085;28;20129;-58
2022/04/28 07:27:39;;;;;;;21.83;13.50;;;;;;;;;;5019968;28;20881;-57
2022/04/28 07:30:05;;;;;;;24.48;12.95;;;;;;;;;;5022474;28;20100;-59
2022/04/28 07:32:33;;;;;;;24.48;13.80;;;;;;;;;;5021539;28;20065;-57
2022/04/28 07:34:58;;;;;;;23.15;12.60;;;;;;;;;;5017561;28;20030;-59
2022/04/28 07:37:25;;;;;;;23.88;13.38;;;;;;;;;;5025256;28;20030;-57
2022/04/28 07:39:51;;;;;;;26.20;13.85;;;;;;;;;;5024604;28;20385;-58
2022/04/28 07:42:17;;;;;;;25.73;13.98;;;;;;;;;;5026075;28;20668;-59
2022/04/28 07:44:43;;;;;;;25.10;12.93;;;;;;;;;;5022710;28;20040;-59
2022/04/28 07:47:09;;;;;;;30.63;12.75;;;;;;;;;;5021826;28;20412;-58
2022/04/28 07:49:36;;;;;;;27.15;13.77;;;;;;;;;;5010945;28;20029;-58
2022/04/28 07:52:02;;;;;;;21.27;12.75;;;;;;;;;;5022224;28;20018;-58
2022/04/28 07:54:28;;;;;;;29.65;13.85;;;;;;;;;;5023661;28;20029;-58
2022/04/28 07:56:54;;;;;;;25.02;13.30;;;;;;;;;;5018076;28;20056;-58
2022/04/28 07:59:20;;;;;;;35.90;13.35;;;;;;;;;;5019918;28;20037;-58
2022/04/28 08:01:46;;;;;;;22.42;12.73;;;;;;;;;;5018695;28;20095;-58
2022/04/28 08:04:12;;;;;;;27.77;13.45;;;;;;;;;;5021195;28;20021;-58
2022/04/28 08:06:38;;;;;;;25.77;12.77;;;;;;;;;;5023513;28;20095;-58
2022/04/28 08:09:04;;;;;;;24.40;13.55;;;;;;;;;;5021156;28;20016;-58
2022/04/28 08:11:31;;;;;;;31.10;13.23;;;;;;;;;;5016043;28;20107;-58
2022/04/28 08:13:57;;;;;;;22.50;13.48;;;;;;;;;;5018110;28;20422;-58
2022/04/28 08:16:23;;;;;;;24.67;12.07;;;;;;;;;;5021492;28;20114;-58
2022/04/28 08:18:49;;;;;;;24.08;13.00;;;;;;;;;;5023556;28;20060;-58
2022/04/28 08:21:15;;;;;;;23.88;13.60;;;;;;;;;;5019919;28;20038;-58
2022/04/28 08:23:41;;;;;;;25.73;12.55;;;;;;;;;;5024817;28;20037;-59
2022/04/28 08:26:07;;;;;;;23.35;14.18;;;;;;;;;;5020282;28;20509;-58
2022/04/28 08:28:33;;;;;;;24.25;13.05;;;;;;;;;;5015797;28;20733;-59
2022/04/28 08:30:59;;;;;;;21.83;12.88;;;;;;;;;;5018673;28;20035;-58
2022/04/28 08:33:25;;;;;;;35.42;15.93;;;;;;;;;;5024080;28;20036;-58
2022/04/28 08:35:52;;;;;;;20.67;12.93;;;;;;;;;;5015819;28;20645;-58
2022/04/28 08:38:18;;;;;;;21.60;13.00;;;;;;;;;;5021421;28;20158;-58
2022/04/28 08:40:46;;;;;;;27.02;13.23;;;;;;;;;;5018346;28;20608;-58
2022/04/28 08:43:12;;;;;;;22.50;13.13;;;;;;;;;;5015528;28;20038;-58
2022/04/28 08:45:41;;;;;;;23.05;12.57;;;;;;;;;;5024092;28;20022;-59
2022/04/28 08:48:08;;;;;;;25.65;12.90;;;;;;;;;;5016506;28;20028;-58
2022/04/28 08:50:35;;;;;;;23.95;12.90;;;;;;;;;;5024339;28;20087;-58
2022/04/28 08:53:01;;;;;;;20.70;12.77;;;;;;;;;;5024199;28;20020;-57
2022/04/28 08:55:27;;;;;;;27.48;12.93;;;;;;;;;;5014963;28;20048;-58
2022/04/28 08:57:53;;;;;;;26.95;13.43;;;;;;;;;;5017720;28;20125;-58
2022/04/28 09:00:19;;;;;;;26.75;13.23;;;;;;;;;;5022376;28;20029;-58
2022/04/28 09:02:45;;;;;;;25.50;13.43;;;;;;;;;;5023490;28;20022;-59
2022/04/28 09:05:11;;;;;;;21.75;13.20;;;;;;;;;;5022571;28;20125;-59
2022/04/28 09:07:38;;;;;;;27.20;12.75;;;;;;;;;;5022241;28;20041;-59
2022/04/28 09:10:23;;;;;;;22.67;13.15;;;;;;;;;;5021909;28;20104;-57
2022/04/28 09:12:56;;;;;;;25.80;14.52;;;;;;;;;;5019046;28;20087;-58
2022/04/28 09:15:22;;;;;;;20.30;12.93;;;;;;;;;;5020998;28;20041;-59
2022/04/28 09:17:48;;;;;;;20.23;12.82;;;;;;;;;;5017562;28;20038;-59
2022/04/28 09:20:14;;;;;;;27.20;13.02;;;;;;;;;;5021019;28;20025;-58
2022/04/28 09:22:43;;;;;;;20.33;11.95;;;;;;;;;;5020336;28;20041;-58
2022/04/28 09:25:10;;;;;;;20.45;12.52;;;;;;;;;;5021698;28;20045;-58
2022/04/28 09:27:36;;;;;;;23.05;12.27;;;;;;;;;;5020951;28;20030;-58
2022/04/28 09:30:02;;;;;;;19.27;12.77;;;;;;;;;;5022073;28;20036;-58
2022/04/28 09:32:29;;;;;;;23.92;12.57;;;;;;;;;;5016387;28;20156;-58
2022/04/28 09:34:55;;;;;;;19.75;11.70;;;;;;;;;;5022135;28;20083;-59
2022/04/28 09:37:27;;;;;;;21.00;12.40;;;;;;;;;;5016122;28;20030;-59
2022/04/28 09:42:41;;;;;;;26.67;12.60;;;;;;;;;;5020561;28;20087;-58
2022/04/28 09:45:08;;;;;;;21.38;11.55;;;;;;;;;;5016017;28;21488;-60
2022/04/28 09:47:35;;;;;;;20.95;12.27;;;;;;;;;;5020146;28;20459;-59
2022/04/28 09:50:01;;;;;;;18.85;11.75;;;;;;;;;;5026154;28;20449;-58
2022/04/28 09:52:28;;;;;;;21.73;12.23;;;;;;;;;;5025554;28;20104;-58
2022/04/28 09:54:56;;;;;;;22.98;12.18;;;;;;;;;;5022382;28;20391;-58
2022/04/28 09:57:23;;;;;;;23.38;14.13;;;;;;;;;;5022680;28;20420;-58
2022/04/28 09:59:50;;;;;;;42.53;22.65;;;;;;;;;;5018811;28;20041;-59
2022/04/28 10:02:20;;;;;;;25.88;14.18;;;;;;;;;;5016404;28;20116;-58
2022/04/28 10:04:47;;;;;;;20.98;12.20;;;;;;;;;;5026917;28;20069;-58
2022/04/28 10:07:14;;;;;;;21.48;11.75;;;;;;;;;;5026467;28;20028;-58
2022/04/28 10:09:48;;;;;;;20.90;12.35;;;;;;;;;;5023463;28;20026;-58
2022/04/28 10:12:15;;;;;;;19.90;11.57;;;;;;;;;;5020387;28;20025;-58
2022/04/28 10:14:42;;;;;;;19.13;11.70;;;;;;;;;;5018786;28;20056;-59
2022/04/28 10:17:30;;;;;;;15.95;10.32;;;;;;;;;;5023736;28;20390;-59
2022/04/28 10:20:02;;;;;;;18.52;11.57;;;;;;;;;;5035433;28;20519;-58
2022/04/28 10:22:31;;;;;;;23.42;10.38;;;;;;;;;;5018397;28;20602;-58
2022/04/28 10:33:17;;;;;;;15.75;11.65;;;;;;;;;;5022272;28;20223;-59
2022/04/28 10:35:55;;;;;;;21.75;11.77;;;;;;;;;;5023779;28;20159;-59
2022/04/28 10:38:31;;;;;;;18.48;10.82;;;;;;;;;;5022154;28;20021;-58
2022/04/28 10:41:01;;;;;;;21.38;11.50;;;;;;;;;;5022536;28;20033;-58
2022/04/28 10:43:33;;;;;;;18.80;12.18;;;;;;;;;;5021992;28;20726;-58
2022/04/28 10:46:22;;;;;;;18.55;11.85;;;;;;;;;;5021192;28;20032;-59
2022/04/28 10:48:52;;;;;;;20.83;12.60;;;;;;;;;;5022006;28;20057;-58
2022/04/28 10:51:20;;;;;;;17.33;12.02;;;;;;;;;;5025891;28;20037;-58
2022/04/28 10:54:05;;;;;;;23.58;11.57;;;;;;;;;;5022281;28;20373;-58
2022/04/28 10:56:31;;;;;;;19.10;11.57;;;;;;;;;;5023687;28;20066;-59
2022/04/28 10:59:01;;;;;;;23.45;13.48;;;;;;;;;;5020554;28;20059;-59
2022/04/28 11:01:27;;;;;;;18.67;12.25;;;;;;;;;;5022364;28;20492;-58
2022/04/28 11:03:57;;;;;;;17.08;12.20;;;;;;;;;;5023685;28;20033;-58
2022/04/28 11:06:34;;;;;;;19.15;12.18;;;;;;;;;;5020830;28;20396;-59
2022/04/28 11:09:01;;;;;;;18.23;12.38;;;;;;;;;;5021151;28;20104;-58
2022/04/28 11:11:29;;;;;;;19.17;11.52;;;;;;;;;;5019112;28;20371;-59
2022/04/28 11:13:57;;;;;;;19.33;12.32;;;;;;;;;;5023216;28;20563;-58
2022/04/28 11:16:23;;;;;;;20.75;12.48;;;;;;;;;;5021151;28;20037;-59
2022/04/28 11:18:49;;;;;;;18.02;12.30;;;;;;;;;;5024645;28;20037;-59
2022/04/28 11:21:16;;;;;;;20.02;12.00;;;;;;;;;;5020700;28;20061;-58
2022/04/28 11:23:43;;;;;;;15.75;11.13;;;;;;;;;;5020945;28;20120;-59
2022/04/28 11:26:10;;;;;;;20.27;12.00;;;;;;;;;;5013978;28;20033;-58
2022/04/28 11:28:36;;;;;;;19.90;12.60;;;;;;;;;;5022915;28;20759;-58
2022/04/28 11:31:06;;;;;;;21.20;13.05;;;;;;;;;;5022500;28;20108;-58
2022/04/28 11:33:32;;;;;;;20.15;11.35;;;;;;;;;;5023031;28;20029;-59
2022/04/28 11:35:58;;;;;;;24.30;11.82;;;;;;;;;;5024644;28;20345;-59
2022/04/28 11:38:25;;;;;;;18.08;11.98;;;;;;;;;;5024219;28;20358;-58
2022/04/28 11:41:04;;;;;;;19.38;12.50;;;;;;;;;;5022958;28;20068;-58
2022/04/28 11:43:31;;;;;;;21.42;13.07;;;;;;;;;;5019380;28;20029;-58
2022/04/28 11:45:58;;;;;;;18.85;12.55;;;;;;;;;;5019608;28;20021;-59
2022/04/28 11:48:26;;;;;;;18.83;13.13;;;;;;;;;;5024096;28;20041;-58
2022/04/28 11:50:52;;;;;;;18.90;12.18;;;;;;;;;;5021442;28;20037;-58
2022/04/28 11:53:18;;;;;;;20.42;11.48;;;;;;;;;;5024689;28;20420;-58
2022/04/28 11:55:45;;;;;;;19.75;12.30;;;;;;;;;;5024078;28;20064;-59
2022/04/28 11:58:15;;;;;;;18.95;12.40;;;;;;;;;;5017729;28;20112;-59
2022/04/28 12:00:43;;;;;;;21.70;12.68;;;;;;;;;;5019312;28;20090;-58
2022/04/28 12:03:09;;;;;;;19.33;11.75;;;;;;;;;;5019347;28;20132;-58
2022/04/28 12:05:35;;;;;;;19.65;13.18;;;;;;;;;;5021623;28;20545;-58
2022/04/28 12:08:02;;;;;;;23.67;12.75;;;;;;;;;;5019535;28;20049;-58
2022/04/28 12:16:07;;;;;;;22.13;11.85;;;;;;;;;;5022467;28;20484;-59
2022/04/28 12:21:18;;;;;;;17.27;11.55;;;;;;;;;;5023522;28;20379;-58
2022/04/28 12:23:46;;;;;;;19.40;12.52;;;;;;;;;;5024532;28;20496;-59
2022/04/28 12:26:13;;;;;;;16.95;11.73;;;;;;;;;;5024622;28;20112;-58
2022/04/28 12:28:40;;;;;;;14.88;10.45;;;;;;;;;;5022610;28;20036;-59
2022/04/28 12:31:10;;;;;;;17.10;11.15;;;;;;;;;;5020291;28;20025;-59
2022/04/28 12:33:38;;;;;;;16.08;11.20;;;;;;;;;;5022997;28;20717;-58
2022/04/28 12:36:05;;;;;;;19.85;11.35;;;;;;;;;;5023105;28;20559;-60
2022/04/28 12:38:35;;;;;;;17.50;10.50;;;;;;;;;;5024486;28;20045;-58
2022/04/28 12:41:17;;;;;;;16.85;10.25;;;;;;;;;;5017051;28;20033;-59
2022/04/28 12:43:48;;;;;;;18.02;11.30;;;;;;;;;;5019274;28;20095;-59
2022/04/28 12:46:15;;;;;;;20.38;10.98;;;;;;;;;;5016936;28;20030;-59
2022/04/28 12:48:41;;;;;;;17.42;10.38;;;;;;;;;;5023766;28;20040;-59
2022/04/28 12:51:11;;;;;;;17.23;10.38;;;;;;;;;;5022874;28;21444;-59
2022/04/28 12:53:38;;;;;;;15.20;9.85;;;;;;;;;;5023508;28;20052;-59
2022/04/28 12:56:16;;;;;;;14.13;10.88;;;;;;;;;;5019821;28;20509;-58
2022/04/28 12:58:43;;;;;;;19.45;11.55;;;;;;;;;;5021672;28;20025;-58
2022/04/28 13:01:14;;;;;;;15.70;10.65;;;;;;;;;;5019563;28;20037;-58
2022/04/28 13:03:41;;;;;;;17.20;10.63;;;;;;;;;;5023334;28;20335;-58
2022/04/28 13:06:08;;;;;;;15.95;10.48;;;;;;;;;;5020183;28;20036;-58
2022/04/28 13:08:34;;;;;;;18.95;10.18;;;;;;;;;;5021162;28;20087;-58
2022/04/28 13:11:01;;;;;;;15.55;10.20;;;;;;;;;;5019955;28;20399;-59
2022/04/28 13:13:27;;;;;;;16.38;10.40;;;;;;;;;;5022236;28;20477;-59
2022/04/28 13:15:53;;;;;;;15.32;10.38;;;;;;;;;;5016197;28;20033;-58
2022/04/28 13:18:19;;;;;;;17.27;10.38;;;;;;;;;;5017082;28;20111;-58
2022/04/28 13:20:45;;;;;;;13.75;9.82;;;;;;;;;;5020527;28;20029;-58
2022/04/28 13:23:11;;;;;;;18.98;10.30;;;;;;;;;;5021623;28;20088;-59
2022/04/28 13:25:37;;;;;;;13.77;9.48;;;;;;;;;;5021118;28;20017;-60
2022/04/28 13:28:03;;;;;;;18.17;9.88;;;;;;;;;;5022231;28;20456;-58
2022/04/28 13:30:29;;;;;;;14.45;9.68;;;;;;;;;;5026418;28;20025;-57
2022/04/28 13:32:55;;;;;;;14.38;9.05;;;;;;;;;;5026246;28;20408;-58
2022/04/28 13:35:21;;;;;;;18.85;9.88;;;;;;;;;;5026931;28;20068;-57
2022/04/28 13:37:47;;;;;;;16.67;9.20;;;;;;;;;;5023812;28;20053;-58
2022/04/28 13:40:13;;;;;;;21.48;9.80;;;;;;;;;;5024810;28;20030;-59
2022/04/28 13:42:39;;;;;;;20.63;9.30;;;;;;;;;;5024721;28;20217;-58
2022/04/28 13:45:05;;;;;;;19.58;8.95;;;;;;;;;;5025578;28;20035;-58
2022/04/28 13:47:31;;;;;;;17.83;9.55;;;;;;;;;;5023631;28;20412;-58
2022/04/28 13:49:57;;;;;;;16.60;9.10;;;;;;;;;;5022354;28;20017;-57
2022/04/28 13:52:23;;;;;;;18.65;9.25;;;;;;;;;;5020958;28;20400;-58
2022/04/28 13:54:49;;;;;;;17.63;9.27;;;;;;;;;;5018880;28;20043;-58
2022/04/28 13:57:15;;;;;;;17.05;8.52;;;;;;;;;;5022431;28;20057;-58
2022/04/28 13:59:41;;;;;;;13.65;8.32;;;;;;;;;;5023119;28;20021;-58
2022/04/28 14:02:07;;;;;;;18.25;8.80;;;;;;;;;;5024351;28;21260;-59
2022/04/28 14:04:33;;;;;;;17.23;8.93;;;;;;;;;;5024070;28;20018;-57
2022/04/28 14:06:59;;;;;;;17.30;8.27;;;;;;;;;;5022790;28;20784;-57
2022/04/28 14:09:27;;;;;;;14.93;8.43;;;;;;;;;;5023033;28;20041;-58
2022/04/28 14:11:55;;;;;;;14.73;8.25;;;;;;;;;;5023189;28;20493;-58
2022/04/28 14:14:21;;;;;;;20.05;8.85;;;;;;;;;;5026780;28;20022;-58
2022/04/28 14:16:48;;;;;;;17.38;8.82;;;;;;;;;;5021341;28;20032;-58
2022/04/28 14:19:14;;;;;;;18.10;8.55;;;;;;;;;;5023615;28;20125;-59
2022/04/28 14:21:42;;;;;;;17.35;8.35;;;;;;;;;;5019638;28;20499;-58
2022/04/28 14:24:08;;;;;;;16.48;8.82;;;;;;;;;;5019165;28;20026;-59
2022/04/28 14:26:35;;;;;;;13.55;8.40;;;;;;;;;;5021502;28;20037;-57
2022/04/28 14:29:01;;;;;;;16.65;8.45;;;;;;;;;;5025148;28;20033;-58